Time,TemperatureF,DewpointF,PressureIn,WindDirection,WindDirectionDegrees,WindSpeedMPH,WindSpeedGustMPH,Humidity,HourlyPrecipIn,Conditions,Clouds,dailyrainin,SoftwareType,DateUTC
2013-04-20 00:00:00,52.3,44.7,29.98,NNW,348,4.0,4.0,75,0.00,,,0.08,VWS V14.00,2013-04-20 04:00:00,
2013-04-20 00:01:00,52.2,44.5,29.98,West,280,0.0,4.0,75,0.00,,,0.08,VWS V14.00,2013-04-20 04:01:00,
2013-04-20 00:02:00,52.2,44.5,29.98,NNW,328,4.0,4.0,75,0.00,,,0.00,VWS V14.00,2013-04-20 04:02:00,
2013-04-20 00:04:00,52.2,44.5,29.98,NNW,336,4.0,6.3,75,0.00,,,0.00,VWS V14.00,2013-04-20 04:04:00,
2013-04-20 00:09:00,52.0,44.3,29.98,WSW,248,6.7,7.6,75,0.00,,,0.00,VWS V14.00,2013-04-20 04:09:00,
2013-04-20 00:14:00,51.4,43.4,29.98,West,261,3.6,8.1,74,0.00,,,0.00,VWS V14.00,2013-04-20 04:14:00,
2013-04-20 00:19:00,51.6,43.6,29.98,NW,307,2.2,6.3,74,0.00,,,0.00,VWS V14.00,2013-04-20 04:19:00,
2013-04-20 00:24:00,51.6,43.6,29.98,North,0,3.1,3.1,74,0.00,,,0.00,VWS V14.00,2013-04-20 04:24:00,
2013-04-20 00:29:00,51.4,43.8,29.98,North,353,0.0,3.6,75,0.00,,,0.00,VWS V14.00,2013-04-20 04:29:00,
2013-04-20 00:34:00,51.3,43.3,29.98,West,273,3.6,4.0,74,0.00,,,0.00,VWS V14.00,2013-04-20 04:34:00,
2013-04-20 00:39:00,50.9,42.9,29.98,WSW,257,7.6,7.6,74,0.00,,,0.00,VWS V14.00,2013-04-20 04:39:00,
2013-04-20 00:44:00,50.9,42.6,29.98,West,281,3.6,5.8,73,0.00,,,0.00,VWS V14.00,2013-04-20 04:44:00,
2013-04-20 00:49:00,50.7,42.8,29.98,NW,319,7.6,7.6,74,0.00,,,0.00,VWS V14.00,2013-04-20 04:49:00,
2013-04-20 00:54:00,50.7,42.8,29.98,WNW,290,5.4,8.7,74,0.00,,,0.00,VWS V14.00,2013-04-20 04:54:00,
2013-04-20 00:59:00,50.7,42.8,29.98,West,264,0.0,0.0,74,0.00,,,0.00,VWS V14.00,2013-04-20 04:59:00,
2013-04-20 01:04:00,50.5,42.6,29.98,West,275,0.0,4.9,74,0.00,,,0.00,VWS V14.00,2013-04-20 05:04:00,
2013-04-20 01:10:00,50.5,42.6,30.01,NNW,340,4.0,6.3,74,0.00,,,0.00,VWS V14.00,2013-04-20 05:10:00,
2013-04-20 01:15:00,50.4,42.0,30.01,WNW,300,4.0,4.0,73,0.00,,,0.00,VWS V14.00,2013-04-20 05:15:00,
2013-04-20 01:20:00,50.4,42.4,30.01,NW,314,4.0,4.0,74,0.00,,,0.00,VWS V14.00,2013-04-20 05:20:00,
2013-04-20 01:25:00,50.4,42.4,30.01,NW,317,3.6,6.3,74,0.00,,,0.00,VWS V14.00,2013-04-20 05:25:00,
2013-04-20 01:30:00,50.4,42.4,30.01,SSW,206,3.1,3.1,74,0.00,,,0.00,VWS V14.00,2013-04-20 05:30:00,
2013-04-20 01:35:00,50.2,42.2,30.01,West,262,4.9,4.9,74,0.00,,,0.00,VWS V14.00,2013-04-20 05:35:00,
2013-04-20 01:40:00,50.2,42.2,30.01,NW,324,0.0,3.1,74,0.00,,,0.00,VWS V14.00,2013-04-20 05:40:00,
2013-04-20 01:45:00,50.2,42.2,30.01,North,10,0.0,3.1,74,0.00,,,0.00,VWS V14.00,2013-04-20 05:45:00,
2013-04-20 01:50:00,50.0,42.0,30.01,NNW,333,0.0,0.0,74,0.00,,,0.00,VWS V14.00,2013-04-20 05:50:00,
2013-04-20 01:55:00,50.0,42.4,30.01,NNW,339,0.0,0.0,75,0.00,,,0.00,VWS V14.00,2013-04-20 05:55:00,
2013-04-20 02:00:00,49.8,41.9,30.01,NW,312,2.2,5.4,74,0.00,,,0.00,VWS V14.00,2013-04-20 06:00:00,
2013-04-20 02:05:00,49.8,41.9,30.01,NW,316,0.0,2.2,74,0.00,,,0.00,VWS V14.00,2013-04-20 06:05:00,
2013-04-20 02:10:00,49.8,41.9,30.01,WNW,295,3.1,4.5,74,0.00,,,0.00,VWS V14.00,2013-04-20 06:10:00,
2013-04-20 02:15:00,49.8,41.9,30.01,NW,306,0.0,0.0,74,0.00,,,0.00,VWS V14.00,2013-04-20 06:15:00,
2013-04-20 02:20:00,49.6,41.7,30.01,West,280,5.4,5.4,74,0.00,,,0.00,VWS V14.00,2013-04-20 06:20:00,
2013-04-20 02:25:00,49.6,41.7,30.01,NNE,20,0.0,3.1,74,0.00,,,0.00,VWS V14.00,2013-04-20 06:25:00,
2013-04-20 02:31:00,49.5,41.5,30.01,NNW,333,3.1,5.4,74,0.00,,,0.00,VWS V14.00,2013-04-20 06:31:00,
2013-04-20 02:36:00,49.3,41.4,30.01,WNW,303,0.0,4.9,74,0.00,,,0.00,VWS V14.00,2013-04-20 06:36:00,
2013-04-20 02:41:00,49.3,41.4,30.01,WNW,290,2.7,4.0,74,0.00,,,0.00,VWS V14.00,2013-04-20 06:41:00,
2013-04-20 02:46:00,49.3,41.4,30.01,North,0,0.0,3.1,74,0.00,,,0.00,VWS V14.00,2013-04-20 06:46:00,
2013-04-20 02:51:00,49.3,41.7,30.01,NNW,333,4.0,4.0,75,0.00,,,0.00,VWS V14.00,2013-04-20 06:51:00,
2013-04-20 02:56:00,49.1,41.5,30.01,NNW,336,0.0,2.7,75,0.00,,,0.00,VWS V14.00,2013-04-20 06:56:00,
2013-04-20 03:01:00,48.9,41.4,30.01,WNW,299,0.0,2.7,75,0.00,,,0.00,VWS V14.00,2013-04-20 07:01:00,
2013-04-20 03:06:00,48.9,41.4,30.01,WNW,289,0.0,2.7,75,0.00,,,0.00,VWS V14.00,2013-04-20 07:06:00,
2013-04-20 03:11:00,48.9,41.4,30.01,North,2,2.7,2.7,75,0.00,,,0.00,VWS V14.00,2013-04-20 07:11:00,
2013-04-20 03:16:00,48.7,41.2,30.01,NW,306,0.0,3.6,75,0.00,,,0.00,VWS V14.00,2013-04-20 07:16:00,
2013-04-20 03:21:00,48.7,41.2,30.01,NNW,337,0.0,3.1,75,0.00,,,0.00,VWS V14.00,2013-04-20 07:21:00,
2013-04-20 03:26:00,48.6,41.3,30.01,NW,323,3.1,4.0,76,0.00,,,0.00,VWS V14.00,2013-04-20 07:26:00,
2013-04-20 03:31:00,48.6,41.3,30.01,North,4,2.7,2.7,76,0.00,,,0.00,VWS V14.00,2013-04-20 07:31:00,
2013-04-20 03:36:00,48.4,40.8,30.01,WNW,300,4.0,6.3,75,0.00,,,0.00,VWS V14.00,2013-04-20 07:36:00,
2013-04-20 03:41:00,48.2,41.0,30.01,NNW,340,0.0,0.0,76,0.00,,,0.00,VWS V14.00,2013-04-20 07:41:00,
2013-04-20 03:46:00,48.2,41.0,30.01,WSW,256,4.0,4.0,76,0.00,,,0.00,VWS V14.00,2013-04-20 07:46:00,
2013-04-20 03:51:00,48.0,40.8,30.01,West,266,0.0,2.2,76,0.00,,,0.00,VWS V14.00,2013-04-20 07:51:00,
2013-04-20 03:57:00,48.0,40.8,30.01,West,266,0.0,0.0,76,0.00,,,0.00,VWS V14.00,2013-04-20 07:57:00,
2013-04-20 04:02:00,48.0,41.2,30.01,NNW,339,3.1,4.0,77,0.00,,,0.00,VWS V14.00,2013-04-20 08:02:00,
2013-04-20 04:07:00,47.8,41.0,30.01,NNW,327,0.0,0.0,77,0.00,,,0.00,VWS V14.00,2013-04-20 08:07:00,
2013-04-20 04:12:00,47.8,41.0,30.01,NNW,331,0.0,0.0,77,0.00,,,0.00,VWS V14.00,2013-04-20 08:12:00,
2013-04-20 04:17:00,47.7,40.8,30.01,WNW,295,0.0,0.0,77,0.00,,,0.00,VWS V14.00,2013-04-20 08:17:00,
2013-04-20 04:22:00,47.5,40.6,30.03,West,275,5.4,5.4,77,0.00,,,0.00,VWS V14.00,2013-04-20 08:22:00,
2013-04-20 04:27:00,47.5,40.3,30.03,NNW,336,3.1,3.1,76,0.00,,,0.00,VWS V14.00,2013-04-20 08:27:00,
2013-04-20 04:32:00,47.5,40.3,30.03,West,280,2.7,3.1,76,0.00,,,0.00,VWS V14.00,2013-04-20 08:32:00,
2013-04-20 04:37:00,47.3,40.1,30.03,NW,311,0.0,0.0,76,0.00,,,0.00,VWS V14.00,2013-04-20 08:37:00,
2013-04-20 04:42:00,47.3,40.1,30.03,North,357,0.0,2.2,76,0.00,,,0.00,VWS V14.00,2013-04-20 08:42:00,
2013-04-20 04:47:00,47.1,40.0,30.03,NNW,348,0.0,0.0,76,0.00,,,0.00,VWS V14.00,2013-04-20 08:47:00,
2013-04-20 04:52:00,47.1,40.3,30.03,NNW,341,0.0,3.1,77,0.00,,,0.00,VWS V14.00,2013-04-20 08:52:00,
2013-04-20 04:57:00,46.9,40.1,30.03,North,357,2.2,2.2,77,0.00,,,0.00,VWS V14.00,2013-04-20 08:57:00,
2013-04-20 05:02:00,46.8,40.3,30.03,NW,307,2.7,2.7,78,0.00,,,0.00,VWS V14.00,2013-04-20 09:02:00,
2013-04-20 05:07:00,46.6,40.1,30.03,North,357,3.1,4.0,78,0.00,,,0.00,VWS V14.00,2013-04-20 09:07:00,
2013-04-20 05:12:00,46.4,39.9,30.03,NW,321,4.0,5.4,78,0.00,,,0.00,VWS V14.00,2013-04-20 09:12:00,
2013-04-20 05:18:00,46.4,39.9,30.03,NNW,334,3.1,3.1,78,0.00,,,0.00,VWS V14.00,2013-04-20 09:18:00,
2013-04-20 05:23:00,46.2,40.1,30.03,NNW,328,3.1,3.6,79,0.00,,,0.00,VWS V14.00,2013-04-20 09:23:00,
2013-04-20 05:28:00,46.0,39.9,30.03,West,262,2.2,2.2,79,0.00,,,0.00,VWS V14.00,2013-04-20 09:28:00,
2013-04-20 05:33:00,46.0,39.6,30.03,NW,306,0.0,2.7,78,0.00,,,0.00,VWS V14.00,2013-04-20 09:33:00,
2013-04-20 05:38:00,45.9,39.4,30.06,WNW,300,0.0,0.0,78,0.00,,,0.00,VWS V14.00,2013-04-20 09:38:00,
2013-04-20 05:43:00,45.9,39.4,30.06,WNW,299,0.0,0.0,78,0.00,,,0.00,VWS V14.00,2013-04-20 09:43:00,
2013-04-20 05:48:00,45.5,39.0,30.06,NNW,331,2.2,3.1,78,0.00,,,0.00,VWS V14.00,2013-04-20 09:48:00,
2013-04-20 05:53:00,45.5,39.0,30.06,SW,234,0.0,2.7,78,0.00,,,0.00,VWS V14.00,2013-04-20 09:53:00,
2013-04-20 05:58:00,45.3,39.2,30.06,SW,234,0.0,0.0,79,0.00,,,0.00,VWS V14.00,2013-04-20 09:58:00,
2013-04-20 06:03:00,45.1,39.0,30.06,West,273,0.0,0.0,79,0.00,,,0.00,VWS V14.00,2013-04-20 10:03:00,
2013-04-20 06:08:00,45.0,39.2,30.06,West,273,0.0,0.0,80,0.00,,,0.00,VWS V14.00,2013-04-20 10:08:00,
2013-04-20 06:13:00,44.8,39.0,30.06,NW,309,3.1,3.1,80,0.00,,,0.00,VWS V14.00,2013-04-20 10:13:00,
2013-04-20 06:18:00,44.6,39.1,30.06,North,0,0.0,0.0,81,0.00,,,0.00,VWS V14.00,2013-04-20 10:18:00,
2013-04-20 06:23:00,44.6,39.1,30.06,North,0,0.0,0.0,81,0.00,,,0.00,VWS V14.00,2013-04-20 10:23:00,
2013-04-20 06:28:00,44.6,39.1,30.06,WNW,290,0.0,0.0,81,0.00,,,0.00,VWS V14.00,2013-04-20 10:28:00,
2013-04-20 06:33:00,44.6,39.1,30.06,WNW,290,0.0,0.0,81,0.00,,,0.00,VWS V14.00,2013-04-20 10:33:00,
2013-04-20 06:38:00,44.6,39.1,30.09,WNW,290,0.0,0.0,81,0.00,,,0.00,VWS V14.00,2013-04-20 10:38:00,
2013-04-20 06:43:00,44.4,39.3,30.09,WNW,290,0.0,0.0,82,0.00,,,0.00,VWS V14.00,2013-04-20 10:43:00,
2013-04-20 06:49:00,44.4,39.3,30.09,WNW,290,0.0,0.0,82,0.00,,,0.00,VWS V14.00,2013-04-20 10:49:00,
2013-04-20 06:54:00,44.2,39.1,30.09,WNW,288,0.0,0.0,82,0.00,,,0.00,VWS V14.00,2013-04-20 10:54:00,
2013-04-20 06:59:00,44.2,39.1,30.09,NNW,346,0.0,2.7,82,0.00,,,0.00,VWS V14.00,2013-04-20 10:59:00,
2013-04-20 07:04:00,44.2,39.1,30.09,West,276,0.0,0.0,82,0.00,,,0.00,VWS V14.00,2013-04-20 11:04:00,
2013-04-20 07:09:00,44.2,39.1,30.09,West,273,0.0,4.0,82,0.00,,,0.00,VWS V14.00,2013-04-20 11:09:00,
2013-04-20 07:14:00,44.2,39.1,30.09,North,357,0.0,0.0,82,0.00,,,0.00,VWS V14.00,2013-04-20 11:14:00,
2013-04-20 07:19:00,44.2,39.1,30.09,North,0,0.0,0.0,82,0.00,,,0.00,VWS V14.00,2013-04-20 11:19:00,
2013-04-20 07:24:00,44.4,39.3,30.09,WNW,303,0.0,0.0,82,0.00,,,0.00,VWS V14.00,2013-04-20 11:24:00,
2013-04-20 07:29:00,44.4,39.3,30.09,North,0,2.2,2.7,82,0.00,,,0.00,VWS V14.00,2013-04-20 11:29:00,
2013-04-20 07:34:00,44.4,39.3,30.12,North,350,3.1,3.6,82,0.00,,,0.00,VWS V14.00,2013-04-20 11:34:00,
2013-04-20 07:39:00,44.6,39.1,30.12,North,350,0.0,0.0,81,0.00,,,0.00,VWS V14.00,2013-04-20 11:39:00,
2013-04-20 07:44:00,44.6,38.8,30.12,North,0,0.0,0.0,80,0.00,,,0.00,VWS V14.00,2013-04-20 11:44:00,
2013-04-20 07:49:00,44.6,38.5,30.12,North,7,0.0,0.0,79,0.00,,,0.00,VWS V14.00,2013-04-20 11:49:00,
2013-04-20 07:54:00,44.6,38.5,30.12,North,0,0.0,4.0,79,0.00,,,0.00,VWS V14.00,2013-04-20 11:54:00,
2013-04-20 07:59:00,44.6,38.2,30.12,WNW,287,3.1,3.1,78,0.00,,,0.00,VWS V14.00,2013-04-20 11:59:00,
2013-04-20 08:04:00,44.6,37.5,30.12,NW,323,0.0,4.9,76,0.00,,,0.00,VWS V14.00,2013-04-20 12:04:00,
2013-04-20 08:09:00,44.8,37.7,30.12,NNW,341,0.0,0.0,76,0.00,,,0.00,VWS V14.00,2013-04-20 12:09:00,
2013-04-20 08:15:00,44.8,37.7,30.12,North,3,0.0,2.7,76,0.00,,,0.00,VWS V14.00,2013-04-20 12:15:00,
2013-04-20 08:20:00,45.0,37.9,30.12,NNE,12,0.0,0.0,76,0.00,,,0.00,VWS V14.00,2013-04-20 12:20:00,
2013-04-20 08:25:00,45.1,37.7,30.12,NW,319,0.0,0.0,75,0.00,,,0.00,VWS V14.00,2013-04-20 12:25:00,
2013-04-20 08:30:00,45.3,37.9,30.12,North,6,0.0,2.2,75,0.00,,,0.00,VWS V14.00,2013-04-20 12:30:00,
2013-04-20 08:35:00,45.7,37.9,30.15,North,0,0.0,0.0,74,0.00,,,0.00,VWS V14.00,2013-04-20 12:35:00,
2013-04-20 08:40:00,46.0,37.9,30.15,NW,317,3.1,3.6,73,0.00,,,0.00,VWS V14.00,2013-04-20 12:40:00,
2013-04-20 08:45:00,46.4,37.9,30.15,NNW,348,0.0,0.0,72,0.00,,,0.00,VWS V14.00,2013-04-20 12:45:00,
2013-04-20 08:50:00,46.8,37.9,30.15,North,10,3.6,3.6,71,0.00,,,0.00,VWS V14.00,2013-04-20 12:50:00,
2013-04-20 08:55:00,47.3,38.4,30.15,NNW,332,0.0,0.0,71,0.00,,,0.00,VWS V14.00,2013-04-20 12:55:00,
2013-04-20 09:00:00,48.0,38.3,30.15,WNW,299,0.0,3.6,69,0.00,,,0.00,VWS V14.00,2013-04-20 13:00:00,
2013-04-20 09:05:00,48.6,37.7,30.15,North,357,0.0,0.0,66,0.00,,,0.00,VWS V14.00,2013-04-20 13:05:00,
2013-04-20 09:10:00,48.7,35.1,30.15,NNW,343,2.7,3.6,59,0.00,,,0.00,VWS V14.00,2013-04-20 13:10:00,
2013-04-20 09:15:00,49.1,33.2,30.15,North,357,3.6,3.6,54,0.00,,,0.00,VWS V14.00,2013-04-20 13:15:00,
2013-04-20 09:21:00,49.1,32.2,30.15,North,353,7.2,7.2,52,0.00,,,0.00,VWS V14.00,2013-04-20 13:21:00,
2013-04-20 09:26:00,49.5,31.6,30.15,North,353,3.6,3.6,50,0.00,,,0.00,VWS V14.00,2013-04-20 13:26:00,
2013-04-20 09:31:00,50.0,31.1,30.15,North,357,4.9,5.4,48,0.00,,,0.00,VWS V14.00,2013-04-20 13:31:00,
2013-04-20 09:36:00,50.2,28.6,30.15,North,8,6.3,10.1,43,0.00,,,0.00,VWS V14.00,2013-04-20 13:36:00,
2013-04-20 09:41:00,51.1,30.5,30.15,NNW,327,11.0,11.0,45,0.00,,,0.00,VWS V14.00,2013-04-20 13:41:00,
2013-04-20 09:46:00,51.6,26.2,30.15,North,10,4.0,8.1,37,0.00,,,0.00,VWS V14.00,2013-04-20 13:46:00,
2013-04-20 09:51:00,52.0,26.5,30.15,North,5,2.7,10.1,37,0.00,,,0.00,VWS V14.00,2013-04-20 13:51:00,
2013-04-20 09:56:00,52.2,26.7,30.15,NNW,348,2.7,5.4,37,0.00,,,0.00,VWS V14.00,2013-04-20 13:56:00,
2013-04-20 10:01:00,52.7,26.5,30.15,NNW,344,5.8,8.3,36,0.00,,,0.00,VWS V14.00,2013-04-20 14:01:00,
2013-04-20 10:06:00,52.9,26.7,30.15,North,357,2.2,5.8,36,0.00,,,0.00,VWS V14.00,2013-04-20 14:06:00,
2013-04-20 10:11:00,53.8,27.5,30.15,NE,54,2.7,5.8,36,0.00,,,0.00,VWS V14.00,2013-04-20 14:11:00,
2013-04-20 10:16:00,53.6,26.6,30.15,North,0,4.0,7.6,35,0.00,,,0.00,VWS V14.00,2013-04-20 14:16:00,
2013-04-20 10:21:00,54.0,27.0,30.18,North,353,2.7,4.9,35,0.00,,,0.00,VWS V14.00,2013-04-20 14:21:00,
2013-04-20 10:26:00,54.5,27.4,30.18,NNW,342,3.6,3.6,35,0.00,,,0.00,VWS V14.00,2013-04-20 14:26:00,
2013-04-20 10:31:00,55.0,25.0,30.18,North,6,4.0,4.0,31,0.00,,,0.00,VWS V14.00,2013-04-20 14:31:00,
2013-04-20 10:36:00,55.6,24.7,30.18,North,357,3.6,6.3,30,0.00,,,0.00,VWS V14.00,2013-04-20 14:36:00,
2013-04-20 10:42:00,55.8,22.3,30.18,NNW,344,9.2,10.5,27,0.00,,,0.00,VWS V14.00,2013-04-20 14:42:00,
2013-04-20 10:47:00,55.9,22.5,30.18,North,353,4.0,7.6,27,0.00,,,0.00,VWS V14.00,2013-04-20 14:47:00,
2013-04-20 10:52:00,56.1,23.5,30.18,NNW,348,4.5,8.3,28,0.00,,,0.00,VWS V14.00,2013-04-20 14:52:00,
2013-04-20 10:57:00,56.1,22.6,30.18,North,5,4.9,8.7,27,0.00,,,0.00,VWS V14.00,2013-04-20 14:57:00,
2013-04-20 11:02:00,56.7,23.1,30.18,North,1,5.4,5.8,27,0.00,,,0.00,VWS V14.00,2013-04-20 15:02:00,
2013-04-20 11:07:00,56.7,24.0,30.18,North,357,6.3,6.3,28,0.00,,,0.00,VWS V14.00,2013-04-20 15:07:00,
2013-04-20 11:12:00,57.0,23.4,30.18,NNE,14,2.7,3.1,27,0.00,,,0.00,VWS V14.00,2013-04-20 15:12:00,
2013-04-20 11:17:00,57.4,23.7,30.18,North,2,4.9,6.3,27,0.00,,,0.00,VWS V14.00,2013-04-20 15:17:00,
2013-04-20 11:22:00,57.6,23.0,30.18,NNW,342,5.4,5.4,26,0.00,,,0.00,VWS V14.00,2013-04-20 15:22:00,
2013-04-20 11:27:00,57.6,25.6,30.18,North,357,2.7,2.7,29,0.00,,,0.00,VWS V14.00,2013-04-20 15:27:00,
2013-04-20 11:32:00,57.9,23.3,30.18,NNW,338,5.8,8.7,26,0.00,,,0.00,VWS V14.00,2013-04-20 15:32:00,
2013-04-20 11:37:00,57.9,23.3,30.18,NNW,338,3.6,4.0,26,0.00,,,0.00,VWS V14.00,2013-04-20 15:37:00,
2013-04-20 11:42:00,58.5,24.6,30.18,North,357,2.2,3.6,27,0.00,,,0.00,VWS V14.00,2013-04-20 15:42:00,
2013-04-20 11:47:00,58.6,23.9,30.18,NNW,335,3.1,8.1,26,0.00,,,0.00,VWS V14.00,2013-04-20 15:47:00,
2013-04-20 11:53:00,58.6,22.9,30.18,NNW,339,6.3,11.9,25,0.00,,,0.00,VWS V14.00,2013-04-20 15:53:00,
2013-04-20 11:58:00,59.2,23.4,30.18,North,357,5.8,5.8,25,0.00,,,0.00,VWS V14.00,2013-04-20 15:58:00,
2013-04-20 12:03:00,59.4,23.6,30.18,North,357,5.8,7.6,25,0.00,,,0.00,VWS V14.00,2013-04-20 16:03:00,
2013-04-20 12:08:00,59.5,23.7,30.18,NNE,23,6.3,6.3,25,0.00,,,0.00,VWS V14.00,2013-04-20 16:08:00,
2013-04-20 12:13:00,59.4,23.6,30.18,NE,44,5.4,5.4,25,0.00,,,0.00,VWS V14.00,2013-04-20 16:13:00,
2013-04-20 12:18:00,59.4,22.6,30.18,NNW,334,3.6,7.6,24,0.00,,,0.00,VWS V14.00,2013-04-20 16:18:00,
2013-04-20 12:23:00,60.1,24.2,30.18,North,10,5.4,8.1,25,0.00,,,0.00,VWS V14.00,2013-04-20 16:23:00,
2013-04-20 12:28:00,60.8,24.8,30.18,NNW,334,0.0,2.7,25,0.00,,,0.00,VWS V14.00,2013-04-20 16:28:00,
2013-04-20 12:33:00,61.3,25.2,30.18,South,187,2.2,4.9,25,0.00,,,0.00,VWS V14.00,2013-04-20 16:33:00,
2013-04-20 12:38:00,61.2,24.1,30.18,North,353,12.3,12.3,24,0.00,,,0.00,VWS V14.00,2013-04-20 16:38:00,
2013-04-20 12:43:00,61.9,24.7,30.18,NNW,346,2.7,5.4,24,0.00,,,0.00,VWS V14.00,2013-04-20 16:43:00,
2013-04-20 12:48:00,62.6,25.3,30.18,NNE,27,0.0,4.0,24,0.00,,,0.00,VWS V14.00,2013-04-20 16:48:00,
2013-04-20 12:53:00,62.6,24.3,30.18,North,2,4.9,4.9,23,0.00,,,0.00,VWS V14.00,2013-04-20 16:53:00,
2013-04-20 12:58:00,63.1,24.8,30.18,NE,48,0.0,3.6,23,0.00,,,0.00,VWS V14.00,2013-04-20 16:58:00,
2013-04-20 13:04:00,63.9,25.4,30.18,NNW,345,2.7,3.6,23,0.00,,,0.00,VWS V14.00,2013-04-20 17:04:00,
2013-04-20 13:09:00,64.2,25.7,30.18,East,95,2.7,2.7,23,0.00,,,0.00,VWS V14.00,2013-04-20 17:09:00,
2013-04-20 13:14:00,64.8,26.1,30.18,North,357,2.7,2.7,23,0.00,,,0.00,VWS V14.00,2013-04-20 17:14:00,
2013-04-20 13:19:00,63.5,19.3,30.18,North,353,8.1,8.7,18,0.00,,,0.00,VWS V14.00,2013-04-20 17:19:00,
2013-04-20 13:24:00,64.2,19.9,30.15,NNW,329,0.0,4.5,18,0.00,,,0.00,VWS V14.00,2013-04-20 17:24:00,
2013-04-20 13:29:00,63.7,19.4,30.15,North,350,0.0,4.9,18,0.00,,,0.00,VWS V14.00,2013-04-20 17:29:00,
2013-04-20 13:34:00,64.0,23.3,30.15,North,353,5.8,5.8,21,0.00,,,0.00,VWS V14.00,2013-04-20 17:34:00,
2013-04-20 13:39:00,64.0,19.7,30.15,WSW,254,5.4,5.4,18,0.00,,,0.00,VWS V14.00,2013-04-20 17:39:00,
2013-04-20 13:44:00,64.9,22.9,30.15,North,357,5.4,6.3,20,0.00,,,0.00,VWS V14.00,2013-04-20 17:44:00,
2013-04-20 13:49:00,64.8,20.3,30.15,NNE,14,5.4,7.6,18,0.00,,,0.00,VWS V14.00,2013-04-20 17:49:00,
2013-04-20 13:54:00,64.8,20.3,30.15,West,277,4.0,4.9,18,0.00,,,0.00,VWS V14.00,2013-04-20 17:54:00,
2013-04-20 14:00:00,65.7,23.5,30.15,SE,134,0.0,0.0,20,0.00,,,0.00,VWS V14.00,2013-04-20 18:00:00,
2013-04-20 14:05:00,66.4,20.3,30.15,NNW,331,0.0,6.3,17,0.00,,,0.00,VWS V14.00,2013-04-20 18:05:00,
2013-04-20 14:10:00,66.2,20.1,30.15,North,0,5.8,7.2,17,0.00,,,0.00,VWS V14.00,2013-04-20 18:10:00,
2013-04-20 14:15:00,66.0,21.3,30.15,NW,316,4.0,6.3,18,0.00,,,0.00,VWS V14.00,2013-04-20 18:15:00,
2013-04-20 14:20:00,65.7,21.0,30.15,SW,230,5.8,7.6,18,0.00,,,0.00,VWS V14.00,2013-04-20 18:20:00,
2013-04-20 14:25:00,65.1,20.6,30.15,SW,231,4.0,6.3,18,0.00,,,0.00,VWS V14.00,2013-04-20 18:25:00,
2013-04-20 14:30:00,66.4,20.3,30.15,SE,142,0.0,0.0,17,0.00,,,0.00,VWS V14.00,2013-04-20 18:30:00,
2013-04-20 14:35:00,68.2,25.6,30.15,SSE,162,2.7,2.7,20,0.00,,,0.00,VWS V14.00,2013-04-20 18:35:00,
2013-04-20 14:40:00,68.9,22.3,30.15,North,5,3.1,4.5,17,0.00,,,0.00,VWS V14.00,2013-04-20 18:40:00,
2013-04-20 14:45:00,68.9,22.3,30.15,North,0,4.0,7.6,17,0.00,,,0.00,VWS V14.00,2013-04-20 18:45:00,
2013-04-20 14:50:00,69.4,22.8,30.15,North,353,3.1,3.1,17,0.00,,,0.00,VWS V14.00,2013-04-20 18:50:00,
2013-04-20 14:55:00,69.8,23.1,30.15,NNW,348,0.0,0.0,17,0.00,,,0.00,VWS V14.00,2013-04-20 18:55:00,
2013-04-20 15:00:00,69.4,22.8,30.15,North,353,4.0,6.3,17,0.00,,,0.00,VWS V14.00,2013-04-20 19:00:00,
2013-04-20 15:05:00,69.6,22.9,30.15,West,274,0.0,2.2,17,0.00,,,0.00,VWS V14.00,2013-04-20 19:05:00,
2013-04-20 15:10:00,69.6,22.9,30.15,WSW,249,3.1,3.6,17,0.00,,,0.00,VWS V14.00,2013-04-20 19:10:00,
2013-04-20 15:15:00,68.9,19.4,30.15,WNW,295,4.9,5.4,15,0.00,,,0.00,VWS V14.00,2013-04-20 19:15:00,
2013-04-20 15:20:00,69.4,22.8,30.15,North,357,4.9,5.8,17,0.00,,,0.00,VWS V14.00,2013-04-20 19:20:00,
2013-04-20 15:25:00,69.4,22.8,30.15,North,0,5.8,5.8,17,0.00,,,0.00,VWS V14.00,2013-04-20 19:25:00,
2013-04-20 15:30:00,69.4,22.8,30.15,WNW,298,4.0,4.9,17,0.00,,,0.00,VWS V14.00,2013-04-20 19:30:00,
2013-04-20 15:36:00,70.2,23.4,30.12,WNW,299,2.2,2.2,17,0.00,,,0.00,VWS V14.00,2013-04-20 19:36:00,
2013-04-20 15:41:00,70.7,23.8,30.12,NNE,12,5.4,5.4,17,0.00,,,0.00,VWS V14.00,2013-04-20 19:41:00,
2013-04-20 15:46:00,71.2,24.2,30.12,North,6,5.4,5.8,17,0.00,,,0.00,VWS V14.00,2013-04-20 19:46:00,
2013-04-20 15:51:00,71.1,24.1,30.12,NNE,16,3.1,7.2,17,0.00,,,0.00,VWS V14.00,2013-04-20 19:51:00,
2013-04-20 15:56:00,70.9,19.4,30.12,North,0,5.4,5.8,14,0.00,,,0.00,VWS V14.00,2013-04-20 19:56:00,
2013-04-20 16:01:00,71.2,19.6,30.12,North,9,0.0,3.6,14,0.00,,,0.00,VWS V14.00,2013-04-20 20:01:00,
2013-04-20 16:06:00,71.8,20.1,30.12,SW,218,0.0,0.0,14,0.00,,,0.00,VWS V14.00,2013-04-20 20:06:00,
2013-04-20 16:11:00,71.4,19.8,30.12,NNE,19,5.4,5.4,14,0.00,,,0.00,VWS V14.00,2013-04-20 20:11:00,
2013-04-20 16:16:00,70.2,23.4,30.12,North,357,5.8,6.3,17,0.00,,,0.00,VWS V14.00,2013-04-20 20:16:00,
2013-04-20 16:21:00,71.4,24.4,30.12,NNW,330,0.0,0.0,17,0.00,,,0.00,VWS V14.00,2013-04-20 20:21:00,
2013-04-20 16:26:00,72.9,24.1,30.12,NNE,24,0.0,4.0,16,0.00,,,0.00,VWS V14.00,2013-04-20 20:26:00,
2013-04-20 16:31:00,71.8,20.1,30.12,South,189,2.7,4.0,14,0.00,,,0.00,VWS V14.00,2013-04-20 20:31:00,
2013-04-20 16:36:00,71.4,19.8,30.12,West,270,3.1,4.0,14,0.00,,,0.00,VWS V14.00,2013-04-20 20:36:00,
2013-04-20 16:41:00,72.3,20.5,30.12,WSW,240,0.0,0.0,14,0.00,,,0.00,VWS V14.00,2013-04-20 20:41:00,
2013-04-20 16:46:00,73.2,21.2,30.12,West,263,0.0,3.6,14,0.00,,,0.00,VWS V14.00,2013-04-20 20:46:00,
2013-04-20 16:52:00,73.8,19.9,30.12,NNW,334,2.7,4.0,13,0.00,,,0.00,VWS V14.00,2013-04-20 20:52:00,
2013-04-20 16:57:00,73.4,19.6,30.12,North,357,4.5,5.8,13,0.00,,,0.00,VWS V14.00,2013-04-20 20:57:00,
2013-04-20 17:02:00,73.9,20.0,30.12,NNW,344,6.3,6.3,13,0.00,,,0.00,VWS V14.00,2013-04-20 21:02:00,
2013-04-20 17:07:00,73.8,19.9,30.12,NE,56,0.0,0.0,13,0.00,,,0.00,VWS V14.00,2013-04-20 21:07:00,
2013-04-20 17:12:00,75.0,25.8,30.12,North,0,2.2,5.8,16,0.00,,,0.00,VWS V14.00,2013-04-20 21:12:00,
2013-04-20 17:17:00,73.6,19.8,30.12,West,270,2.2,5.8,13,0.00,,,0.00,VWS V14.00,2013-04-20 21:17:00,
2013-04-20 17:22:00,72.9,20.9,30.12,NNE,25,0.0,6.3,14,0.00,,,0.00,VWS V14.00,2013-04-20 21:22:00,
2013-04-20 17:27:00,74.1,20.2,30.12,West,281,2.2,3.6,13,0.00,,,0.00,VWS V14.00,2013-04-20 21:27:00,
2013-04-20 17:32:00,74.1,20.2,30.12,North,6,2.7,3.6,13,0.00,,,0.00,VWS V14.00,2013-04-20 21:32:00,
2013-04-20 17:37:00,73.8,19.9,30.12,NNE,24,0.0,0.0,13,0.00,,,0.00,VWS V14.00,2013-04-20 21:37:00,
2013-04-20 17:42:00,74.5,20.5,30.12,West,259,3.1,4.0,13,0.00,,,0.00,VWS V14.00,2013-04-20 21:42:00,
2013-04-20 17:47:00,73.4,19.6,30.12,NE,48,2.2,3.6,13,0.00,,,0.00,VWS V14.00,2013-04-20 21:47:00,
2013-04-20 17:52:00,73.0,21.1,30.12,North,11,2.2,3.1,14,0.00,,,0.00,VWS V14.00,2013-04-20 21:52:00,
2013-04-20 17:57:00,73.9,20.0,30.12,NNE,14,0.0,0.0,13,0.00,,,0.00,VWS V14.00,2013-04-20 21:57:00,
2013-04-20 18:02:00,73.0,21.1,30.12,North,357,3.6,5.4,14,0.00,,,0.00,VWS V14.00,2013-04-20 22:02:00,
2013-04-20 18:07:00,72.0,20.2,30.12,North,1,2.2,4.0,14,0.00,,,0.00,VWS V14.00,2013-04-20 22:07:00,
2013-04-20 18:12:00,73.6,19.8,30.12,WNW,287,0.0,4.0,13,0.00,,,0.00,VWS V14.00,2013-04-20 22:12:00,
2013-04-20 18:18:00,72.3,20.5,30.12,NW,321,3.1,5.8,14,0.00,,,0.00,VWS V14.00,2013-04-20 22:18:00,
2013-04-20 18:23:00,72.1,20.4,30.12,North,353,0.0,2.2,14,0.00,,,0.00,VWS V14.00,2013-04-20 22:23:00,
2013-04-20 18:28:00,71.4,19.8,30.12,NE,45,0.0,2.2,14,0.00,,,0.00,VWS V14.00,2013-04-20 22:28:00,
2013-04-20 18:33:00,70.5,19.1,30.12,West,275,2.2,3.1,14,0.00,,,0.00,VWS V14.00,2013-04-20 22:33:00,
2013-04-20 18:38:00,69.3,19.7,30.15,North,353,0.0,3.1,15,0.00,,,0.00,VWS V14.00,2013-04-20 22:38:00,
2013-04-20 18:43:00,68.5,19.1,30.15,North,350,5.4,5.4,15,0.00,,,0.00,VWS V14.00,2013-04-20 22:43:00,
2013-04-20 18:48:00,67.8,18.5,30.15,NNE,29,0.0,0.0,15,0.00,,,0.00,VWS V14.00,2013-04-20 22:48:00,
2013-04-20 18:53:00,67.1,17.9,30.15,North,1,0.0,4.0,15,0.00,,,0.00,VWS V14.00,2013-04-20 22:53:00,
2013-04-20 18:58:00,66.9,17.8,30.15,North,357,0.0,0.0,15,0.00,,,0.00,VWS V14.00,2013-04-20 22:58:00,
2013-04-20 19:03:00,66.7,17.6,30.15,North,357,0.0,0.0,15,0.00,,,0.00,VWS V14.00,2013-04-20 23:03:00,
2013-04-20 19:08:00,66.4,17.4,30.15,North,0,0.0,2.7,15,0.00,,,0.00,VWS V14.00,2013-04-20 23:08:00,
2013-04-20 19:13:00,66.0,17.1,30.15,North,357,3.1,4.0,15,0.00,,,0.00,VWS V14.00,2013-04-20 23:13:00,
2013-04-20 19:18:00,65.7,16.8,30.15,North,0,0.0,0.0,15,0.00,,,0.00,VWS V14.00,2013-04-20 23:18:00,
2013-04-20 19:23:00,65.7,21.0,30.15,North,0,0.0,0.0,18,0.00,,,0.00,VWS V14.00,2013-04-20 23:23:00,
2013-04-20 19:28:00,65.7,21.0,30.15,North,0,0.0,0.0,18,0.00,,,0.00,VWS V14.00,2013-04-20 23:28:00,
2013-04-20 19:33:00,65.5,20.9,30.15,North,0,0.0,0.0,18,0.00,,,0.00,VWS V14.00,2013-04-20 23:33:00,
2013-04-20 19:38:00,65.1,20.6,30.15,North,0,0.0,0.0,18,0.00,,,0.00,VWS V14.00,2013-04-20 23:38:00,
2013-04-20 19:44:00,64.9,20.4,30.15,North,0,0.0,0.0,18,0.00,,,0.00,VWS V14.00,2013-04-20 23:44:00,
2013-04-20 19:49:00,64.2,19.9,30.15,North,0,0.0,0.0,18,0.00,,,0.00,VWS V14.00,2013-04-20 23:49:00,
2013-04-20 19:54:00,63.7,23.0,30.15,North,357,0.0,0.0,21,0.00,,,0.00,VWS V14.00,2013-04-20 23:54:00,
2013-04-20 19:59:00,63.1,24.8,30.15,North,0,0.0,0.0,23,0.00,,,0.00,VWS V14.00,2013-04-20 23:59:00,
2013-04-20 20:04:00,62.2,26.0,30.15,North,0,0.0,0.0,25,0.00,,,0.00,VWS V14.00,2013-04-21 00:04:00,
2013-04-20 20:09:00,61.5,25.4,30.15,North,0,0.0,0.0,25,0.00,,,0.00,VWS V14.00,2013-04-21 00:09:00,
2013-04-20 20:14:00,61.0,25.9,30.15,North,0,0.0,0.0,26,0.00,,,0.00,VWS V14.00,2013-04-21 00:14:00,
2013-04-20 20:19:00,60.3,27.0,30.15,North,357,0.0,0.0,28,0.00,,,0.00,VWS V14.00,2013-04-21 00:19:00,
2013-04-20 20:24:00,59.5,26.4,30.18,North,0,0.0,0.0,28,0.00,,,0.00,VWS V14.00,2013-04-21 00:24:00,
2013-04-20 20:29:00,59.2,28.6,30.18,North,0,0.0,0.0,31,0.00,,,0.00,VWS V14.00,2013-04-21 00:29:00,
2013-04-20 20:34:00,58.6,28.9,30.18,North,0,0.0,0.0,32,0.00,,,0.00,VWS V14.00,2013-04-21 00:34:00,
2013-04-20 20:39:00,58.1,29.9,30.18,North,357,0.0,0.0,34,0.00,,,0.00,VWS V14.00,2013-04-21 00:39:00,
2013-04-20 20:44:00,57.7,30.3,30.18,North,0,0.0,0.0,35,0.00,,,0.00,VWS V14.00,2013-04-21 00:44:00,
2013-04-20 20:49:00,57.4,30.0,30.18,North,0,0.0,0.0,35,0.00,,,0.00,VWS V14.00,2013-04-21 00:49:00,
2013-04-20 20:54:00,57.2,29.1,30.18,North,0,0.0,0.0,34,0.00,,,0.00,VWS V14.00,2013-04-21 00:54:00,
2013-04-20 20:59:00,57.0,29.0,30.18,North,0,0.0,0.0,34,0.00,,,0.00,VWS V14.00,2013-04-21 00:59:00,
2013-04-20 21:04:00,56.7,29.3,30.18,North,0,0.0,0.0,35,0.00,,,0.00,VWS V14.00,2013-04-21 01:04:00,
2013-04-20 21:09:00,56.7,30.0,30.18,North,357,0.0,0.0,36,0.00,,,0.00,VWS V14.00,2013-04-21 01:09:00,
2013-04-20 21:15:00,56.3,31.0,30.18,North,357,0.0,0.0,38,0.00,,,0.00,VWS V14.00,2013-04-21 01:15:00,
2013-04-20 21:20:00,55.9,31.4,30.21,North,0,0.0,0.0,39,0.00,,,0.00,VWS V14.00,2013-04-21 01:20:00,
2013-04-20 21:25:00,55.6,31.7,30.21,North,0,0.0,0.0,40,0.00,,,0.00,VWS V14.00,2013-04-21 01:25:00,
2013-04-20 21:30:00,55.2,30.7,30.21,North,0,0.0,0.0,39,0.00,,,0.00,VWS V14.00,2013-04-21 01:30:00,
2013-04-20 21:35:00,54.9,31.6,30.21,North,0,0.0,0.0,41,0.00,,,0.00,VWS V14.00,2013-04-21 01:35:00,
2013-04-20 21:40:00,54.7,32.1,30.21,North,0,0.0,0.0,42,0.00,,,0.00,VWS V14.00,2013-04-21 01:40:00,
2013-04-20 21:45:00,54.3,33.5,30.21,North,0,0.0,0.0,45,0.00,,,0.00,VWS V14.00,2013-04-21 01:45:00,
2013-04-20 21:50:00,54.0,33.7,30.21,North,0,0.0,0.0,46,0.00,,,0.00,VWS V14.00,2013-04-21 01:50:00,
2013-04-20 21:55:00,53.6,34.4,30.21,North,0,0.0,0.0,48,0.00,,,0.00,VWS V14.00,2013-04-21 01:55:00,
2013-04-20 22:00:00,53.1,33.9,30.21,North,0,0.0,0.0,48,0.00,,,0.00,VWS V14.00,2013-04-21 02:00:00,
2013-04-20 22:05:00,52.9,33.7,30.21,North,0,0.0,0.0,48,0.00,,,0.00,VWS V14.00,2013-04-21 02:05:00,
2013-04-20 22:10:00,52.9,34.8,30.21,North,0,0.0,0.0,50,0.00,,,0.00,VWS V14.00,2013-04-21 02:10:00,
2013-04-20 22:15:00,52.3,34.3,30.21,North,0,0.0,0.0,50,0.00,,,0.00,VWS V14.00,2013-04-21 02:15:00,
2013-04-20 22:20:00,52.2,34.6,30.21,North,0,0.0,0.0,51,0.00,,,0.00,VWS V14.00,2013-04-21 02:20:00,
2013-04-20 22:25:00,52.0,34.4,30.21,North,0,0.0,0.0,51,0.00,,,0.00,VWS V14.00,2013-04-21 02:25:00,
2013-04-20 22:30:00,51.8,34.3,30.21,North,357,0.0,0.0,51,0.00,,,0.00,VWS V14.00,2013-04-21 02:30:00,
2013-04-20 22:36:00,51.8,35.2,30.24,North,0,0.0,0.0,53,0.00,,,0.00,VWS V14.00,2013-04-21 02:36:00,
2013-04-20 22:41:00,51.6,35.5,30.24,North,0,0.0,0.0,54,0.00,,,0.00,VWS V14.00,2013-04-21 02:41:00,
2013-04-20 22:46:00,51.4,35.4,30.24,North,0,0.0,0.0,54,0.00,,,0.00,VWS V14.00,2013-04-21 02:46:00,
2013-04-20 22:51:00,51.3,35.2,30.24,North,0,0.0,0.0,54,0.00,,,0.00,VWS V14.00,2013-04-21 02:51:00,
2013-04-20 22:56:00,51.1,35.0,30.24,North,0,0.0,0.0,54,0.00,,,0.00,VWS V14.00,2013-04-21 02:56:00,
2013-04-20 23:01:00,50.9,35.3,30.24,North,0,0.0,0.0,55,0.00,,,0.00,VWS V14.00,2013-04-21 03:01:00,
2013-04-20 23:06:00,50.7,36.1,30.24,North,0,0.0,0.0,57,0.00,,,0.00,VWS V14.00,2013-04-21 03:06:00,
2013-04-20 23:11:00,50.5,36.8,30.24,North,0,0.0,0.0,59,0.00,,,0.00,VWS V14.00,2013-04-21 03:11:00,
2013-04-20 23:16:00,50.2,36.8,30.24,North,0,0.0,0.0,60,0.00,,,0.00,VWS V14.00,2013-04-21 03:16:00,
2013-04-20 23:21:00,50.0,37.5,30.24,North,0,0.0,0.0,62,0.00,,,0.00,VWS V14.00,2013-04-21 03:21:00,
2013-04-20 23:26:00,49.6,38.0,30.24,North,0,0.0,0.0,64,0.00,,,0.00,VWS V14.00,2013-04-21 03:26:00,
2013-04-20 23:31:00,49.3,37.6,30.24,North,0,0.0,0.0,64,0.00,,,0.00,VWS V14.00,2013-04-21 03:31:00,
2013-04-20 23:36:00,49.3,38.0,30.24,North,0,0.0,0.0,65,0.00,,,0.00,VWS V14.00,2013-04-21 03:36:00,
2013-04-20 23:41:00,49.3,38.0,30.24,North,0,0.0,0.0,65,0.00,,,0.00,VWS V14.00,2013-04-21 03:41:00,
2013-04-20 23:46:00,49.3,38.0,30.24,North,0,0.0,0.0,65,0.00,,,0.00,VWS V14.00,2013-04-21 03:46:00,
2013-04-20 23:52:00,49.1,37.5,30.24,North,0,0.0,0.0,64,0.00,,,0.00,VWS V14.00,2013-04-21 03:52:00,
2013-04-20 23:57:00,49.1,37.5,30.24,North,0,0.0,0.0,64,0.00,,,0.00,VWS V14.00,2013-04-21 03:57:00,